Flight Track Log - Related Links

Times and Time Zones

All times are in EDT time to prevent confusion due to time zone crossing. See the N25572 flight status page for this flight to view local times or setup timezone preferences in your user account.

Time Position Orientation Groundspeed Altitude Reporting Facility
EDT Latitude Longitude Course Direction KTS MPH feet Rate Location/Type
Mon 06:17:12 PM 28.1000 -80.6333 344° North 50 58 300  Level Orlando TRACON
Mon 06:18:12 PM 28.1000 -80.6167 90° East 76 87 800 409 Climbing Orlando TRACON
Mon 06:19:24 PM 28.1167 -80.5833 60° Northeast 93 107 1,200 318 Climbing Orlando TRACON
Mon 06:20:24 PM 28.1333 -80.5667 41° Northeast 96 110 1,500 365 Climbing Orlando TRACON
Mon 06:21:19 PM 28.1500 -80.5833 319° Northwest 82 94 1,900 313 Climbing Orlando TRACON
Mon 06:22:19 PM 28.1500 -80.6000 270° West 69 79 2,100 263 Climbing Orlando TRACON
Mon 06:23:00 PM 28.2581 -80.6972 344° North  Level FlightAware Approximate
Mon 06:23:13 PM 28.1500 -80.6333 270° West 72 83 2,400  Level Orlando TRACON
Mon 06:24:25 PM 28.1667 -80.6500 319° Northwest 75 86 2,800 300 Climbing Orlando TRACON
Mon 06:25:13 PM 28.1833 -80.6667 319° Northwest 111 128 3,000 211 Climbing Orlando TRACON
Mon 06:26:19 PM 28.2000 -80.6833 319° Northwest 103 119 3,200 190 Climbing Orlando TRACON
Mon 06:27:19 PM 28.2333 -80.6833 360° North 111 128 3,400  Climbing Orlando TRACON
Mon 06:28:13 PM 28.2667 -80.7000 336° Northwest 120 138 3,200 -158 Descending Orlando TRACON
Mon 06:29:13 PM 28.3000 -80.7000 360° North 120 138 3,100 -95 Descending Orlando TRACON
Mon 06:30:19 PM 28.3333 -80.7167 336° Northwest 110 127 3,000 -48 Descending Orlando TRACON
Mon 06:31:19 PM 28.3667 -80.7333 336° Northwest 118 136 3,000  Level Orlando TRACON
Mon 06:32:19 PM 28.3833 -80.7333 360° North 110 127 3,000  Level Orlando TRACON
Mon 06:33:19 PM 28.4167 -80.7500 336° Northwest 109 125 3,000  Level Orlando TRACON
Mon 06:34:19 PM 28.4500 -80.7500 360° North 109 125 3,000  Level Orlando TRACON
Mon 06:35:20 PM 28.4667 -80.7667 319° Northwest 109 125 3,000  Level Orlando TRACON
Mon 06:36:20 PM 28.5000 -80.7833 336° Northwest 103 119 3,000  Level Orlando TRACON
Mon 06:37:26 PM 28.5333 -80.8000 336° Northwest 114 131 3,000  Level Orlando TRACON
Mon 06:38:20 PM 28.5667 -80.8000 360° North 112 129 3,000  Level Orlando TRACON
Mon 06:39:20 PM 28.5833 -80.8167 319° Northwest 114 131 3,000 48 Level Orlando TRACON
Mon 06:40:26 PM 28.6333 -80.8167 360° North 113 130 3,100 50 Climbing Orlando TRACON
Mon 06:41:20 PM 28.6500 -80.8333 319° Northwest 104 120 3,100 -39 Level Orlando TRACON
Mon 06:43:01 PM 28.6889 -80.8619 327° Northwest 109 125 3,000 -37 Descending Jacksonville Center
Mon 06:44:02 PM 28.7164 -80.8781 333° Northwest 110 127 3,000  Level Jacksonville Center
Mon 06:45:03 PM 28.7436 -80.8917 336° Northwest 116 133 3,000  Level Jacksonville Center
Mon 06:46:03 PM 28.7731 -80.9031 341° North 105 121 3,000 50 Level Jacksonville Center
Mon 06:47:04 PM 28.7983 -80.9192 331° Northwest 108 124 3,100 50 Climbing Jacksonville Center
Mon 06:48:04 PM 28.8278 -80.9350 335° Northwest 106 122 3,100  Level Jacksonville Center
Mon 06:49:05 PM 28.8553 -80.9486 337° Northwest 110 127 3,100 -49 Level Jacksonville Center
Mon 06:50:06 PM 28.8844 -80.9600 341° North 111 128 3,000 -50 Descending Jacksonville Center
Mon 06:51:06 PM 28.9181 -80.9642 354° North 116 133 3,000 50 Level Jacksonville Center
Mon 06:52:07 PM 28.9494 -80.9658 357° North 117 135 3,100 47 Climbing Jacksonville Center
Mon 06:53:14 PM 28.9869 -80.9650 North 119 137 3,100  Level Jacksonville Center
Mon 06:54:14 PM 29.0181 -80.9550 16° North 122 140 3,100 -50 Level Jacksonville Center
Mon 06:55:15 PM 29.0533 -80.9472 11° North 123 142 3,000 -50 Descending Jacksonville Center
Mon 06:56:15 PM 29.0867 -80.9394 12° North 124 143 3,000  Level Jacksonville Center
Mon 06:57:10 PM 29.1181 -80.9389 North 123 142 3,000 -52 Level Jacksonville Center
Mon 06:58:11 PM 29.1514 -80.9453 350° North 120 138 2,900 -298 Descending Jacksonville Center
Mon 06:59:11 PM 29.1831 -80.9614 336° Northwest 123 142 2,400 -567 Descending Jacksonville Center
Mon 07:00:18 PM 29.1961 -80.9944 294° West 96 110 1,700 -750 Descending Jacksonville Center
Mon 07:01:19 PM 29.1925 -81.0278 263° West 101 116 800 -885 Descending Jacksonville Center
Mon 07:03:00 PM 29.1799 -81.0581 217° Southwest  Level Estimated
Mon 07:10:00 PM 29.1799 -81.0581 336° Northwest  Level Estimated
Mon 07:11:00 PM 29.1799 -81.0581 336° Northwest  Level Estimated
Mon 07:12:00 PM 29.1799 -81.0581 336° Northwest  Level Estimated

Login

Don't have an account? Register now (free) for customized features, flight alerts, and more!